EST,Max TemperatureF,Mean TemperatureF,Min TemperatureF,Max Dew PointF,MeanDew PointF,Min DewpointF,Max Humidity, Mean Humidity, Min Humidity, Max Sea Level PressureIn, Mean Sea Level PressureIn, Min Sea Level PressureIn, Max VisibilityMiles, Mean VisibilityMiles, Min VisibilityMiles, Max Wind SpeedMPH, Mean Wind SpeedMPH, Max Gust SpeedMPH,PrecipitationIn, CloudCover, Events, WindDirDegrees
2014-1-1,7,1,-5,1,-2,-8,95,84,72,30.50,30.43,30.33,10,9,4,12,5,13,T,6,,339
2014-1-2,6,-1,-8,2,-1,-11,91,84,76,30.42,30.32,30.26,10,4,1,18,9,22,0.03,8,Snow,360
2014-1-3,14,-3,-21,2,-9,-24,89,74,58,30.41,30.28,29.90,10,9,2,24,9,34,T,5,,195
2014-1-4,28,21,14,26,14,2,92,73,53,30.03,29.84,29.72,10,10,5,25,11,33,T,7,,224
2014-1-5,22,19,16,17,14,9,92,80,67,30.14,29.97,29.69,10,5,0,21,9,31,0.12,8,Fog-Snow,336
2014-1-6,16,5,-6,12,1,-13,88,79,69,29.86,29.72,29.62,10,3,0,21,11,28,0.17,8,Fog-Snow,286
2014-1-7,8,1,-7,0,-7,-14,79,71,63,30.17,29.95,29.82,10,8,1,23,12,33,T,7,Snow,241
2014-1-8,13,9,5,3,1,-2,80,71,61,30.48,30.31,30.12,10,10,10,15,8,22,T,8,,240
2014-1-9,18,3,-13,5,0,-14,87,71,54,30.58,30.47,30.27,10,9,2,15,6,18,T,2,,196
2014-1-10,34,23,11,33,22,7,100,87,73,30.27,30.00,29.63,10,6,2,14,8,18,0.27,8,Rain,160
2014-1-11,39,36,32,38,34,28,100,91,82,29.59,29.34,29.19,10,7,0,17,8,29,0.27,8,Fog-Rain-Snow,221
2014-1-12,37,35,32,28,25,24,85,72,59,29.78,29.66,29.49,10,10,10,21,11,28,T,5,,235
2014-1-13,39,35,30,35,30,25,92,78,64,29.62,29.54,29.44,10,9,3,14,7,18,0.01,6,Rain-Snow,221
2014-1-14,33,30,27,30,25,19,100,80,59,29.77,29.67,29.57,10,6,1,14,5,19,0.16,8,Snow,89
2014-1-15,32,24,16,28,14,7,100,84,67,29.94,29.76,29.55,10,5,1,21,8,32,0.04,8,Snow,270
2014-1-16,24,20,15,22,15,9,96,85,73,29.83,29.68,29.60,10,5,1,22,12,28,0.02,8,Snow,166
2014-1-17,29,25,20,25,22,16,96,90,84,29.83,29.68,29.58,10,4,1,12,4,17,0.08,8,Snow,249
2014-1-18,25,21,17,17,15,13,84,73,62,29.88,29.83,29.72,10,10,9,10,4,14,T,8,Snow,266
2014-1-19,29,23,17,24,18,14,92,82,71,29.68,29.47,29.33,10,6,1,21,11,30,0.06,7,Snow,281
2014-1-20,17,9,1,13,1,-8,88,74,60,30.17,29.88,29.53,10,6,1,18,10,23,0.01,7,Snow,318
2014-1-21,3,-8,-20,-3,-9,-25,87,78,69,30.29,30.22,30.11,10,8,2,18,6,23,T,6,Snow,303
2014-1-22,10,-5,-21,5,-4,-26,88,81,73,30.22,30.01,29.89,10,5,2,13,3,15,0.04,7,Snow,152
2014-1-23,11,-3,-17,8,-3,-19,88,74,60,30.47,30.26,29.97,10,5,0,24,10,32,0.05,6,Fog-Snow,355
2014-1-24,17,3,-12,11,3,-11,83,71,59,30.35,29.77,29.29,10,7,2,26,13,35,T,6,Snow,204
2014-1-25,20,9,-2,16,5,-10,92,71,50,29.68,29.34,29.13,10,6,1,26,12,33,0.06,6,Snow,273
2014-1-26,13,4,-5,6,0,-8,88,77,66,29.67,29.46,29.29,10,6,1,17,8,24,0.03,7,Snow,196
2014-1-27,9,3,-3,1,-7,-13,86,69,51,30.14,29.87,29.36,10,7,1,17,9,27,0.01,6,Snow,293
2014-1-28,8,0,-8,-4,-7,-12,83,69,55,30.17,30.09,29.93,10,10,9,22,12,30,T,2,,228
2014-1-29,16,10,4,5,0,-4,76,64,51,30.02,29.93,29.84,10,9,2,20,11,32,T,5,Snow,236
2014-1-30,26,20,14,22,12,5,88,69,50,29.98,29.73,29.58,10,7,0,21,13,29,0.02,7,Fog-Snow,199
2014-1-31,26,10,-6,21,8,-9,87,70,52,30.15,29.97,29.68,10,9,2,14,4,19,T,5,Snow,277